sensor_id;sensor_type;location;lat;lon;timestamp;P1;durP1;ratioP1;P2;durP2;ratioP2
6850;SDS011;3464;42.728;23.296;2022-11-15T00:00:44;167.20;;;89.23;;
6850;SDS011;3464;42.728;23.296;2022-11-15T00:03:12;155.13;;;81.43;;
6850;SDS011;3464;42.728;23.296;2022-11-15T00:05:37;151.00;;;81.00;;
6850;SDS011;3464;42.728;23.296;2022-11-15T00:08:03;163.50;;;92.67;;
6850;SDS011;3464;42.728;23.296;2022-11-15T00:10:30;181.60;;;97.37;;
6850;SDS011;3464;42.728;23.296;2022-11-15T00:12:57;206.43;;;105.03;;
6850;SDS011;3464;42.728;23.296;2022-11-15T00:15:23;201.03;;;103.97;;
6850;SDS011;3464;42.728;23.296;2022-11-15T00:17:50;203.43;;;105.27;;
6850;SDS011;3464;42.728;23.296;2022-11-15T00:20:17;173.97;;;91.57;;
6850;SDS011;3464;42.728;23.296;2022-11-15T00:22:43;185.03;;;95.10;;
6850;SDS011;3464;42.728;23.296;2022-11-15T00:25:09;183.40;;;96.40;;
6850;SDS011;3464;42.728;23.296;2022-11-15T00:27:36;167.17;;;88.23;;
6850;SDS011;3464;42.728;23.296;2022-11-15T00:30:03;157.20;;;85.03;;
6850;SDS011;3464;42.728;23.296;2022-11-15T00:32:31;161.37;;;83.97;;
6850;SDS011;3464;42.728;23.296;2022-11-15T00:34:57;168.70;;;88.90;;
6850;SDS011;3464;42.728;23.296;2022-11-15T00:37:24;164.13;;;87.37;;
6850;SDS011;3464;42.728;23.296;2022-11-15T00:39:51;151.50;;;83.80;;
6850;SDS011;3464;42.728;23.296;2022-11-15T00:42:17;162.00;;;83.37;;
6850;SDS011;3464;42.728;23.296;2022-11-15T00:44:44;154.47;;;80.27;;
6850;SDS011;3464;42.728;23.296;2022-11-15T00:47:11;147.07;;;80.77;;
6850;SDS011;3464;42.728;23.296;2022-11-15T00:49:37;136.53;;;77.67;;
6850;SDS011;3464;42.728;23.296;2022-11-15T00:52:04;149.60;;;79.13;;
6850;SDS011;3464;42.728;23.296;2022-11-15T00:54:30;135.80;;;76.60;;
6850;SDS011;3464;42.728;23.296;2022-11-15T00:56:58;137.27;;;75.00;;
6850;SDS011;3464;42.728;23.296;2022-11-15T00:59:24;158.40;;;85.67;;
6850;SDS011;3464;42.728;23.296;2022-11-15T01:01:51;160.80;;;86.80;;
6850;SDS011;3464;42.728;23.296;2022-11-15T01:04:17;155.30;;;84.80;;
6850;SDS011;3464;42.728;23.296;2022-11-15T01:06:44;163.87;;;87.27;;
6850;SDS011;3464;42.728;23.296;2022-11-15T01:09:13;174.53;;;91.63;;
6850;SDS011;3464;42.728;23.296;2022-11-15T01:11:39;155.73;;;87.87;;
6850;SDS011;3464;42.728;23.296;2022-11-15T01:14:06;162.47;;;87.00;;
6850;SDS011;3464;42.728;23.296;2022-11-15T01:16:32;169.70;;;90.70;;
6850;SDS011;3464;42.728;23.296;2022-11-15T01:18:59;153.87;;;85.27;;
6850;SDS011;3464;42.728;23.296;2022-11-15T01:21:25;174.67;;;89.37;;
6850;SDS011;3464;42.728;23.296;2022-11-15T01:23:55;162.97;;;90.03;;
6850;SDS011;3464;42.728;23.296;2022-11-15T01:26:22;164.00;;;90.57;;
6850;SDS011;3464;42.728;23.296;2022-11-15T01:28:48;167.80;;;92.10;;
6850;SDS011;3464;42.728;23.296;2022-11-15T01:31:16;166.70;;;87.97;;
6850;SDS011;3464;42.728;23.296;2022-11-15T01:33:42;165.37;;;89.17;;
6850;SDS011;3464;42.728;23.296;2022-11-15T01:36:12;156.23;;;82.40;;
6850;SDS011;3464;42.728;23.296;2022-11-15T01:38:40;148.00;;;80.67;;
6850;SDS011;3464;42.728;23.296;2022-11-15T01:41:11;134.90;;;74.63;;
6850;SDS011;3464;42.728;23.296;2022-11-15T01:43:34;140.80;;;72.27;;
6850;SDS011;3464;42.728;23.296;2022-11-15T01:46:01;139.33;;;72.17;;
6850;SDS011;3464;42.728;23.296;2022-11-15T01:48:28;123.50;;;66.17;;
6850;SDS011;3464;42.728;23.296;2022-11-15T01:50:53;128.63;;;64.60;;
6850;SDS011;3464;42.728;23.296;2022-11-15T01:53:20;128.47;;;65.90;;
6850;SDS011;3464;42.728;23.296;2022-11-15T01:55:47;132.67;;;66.70;;
6850;SDS011;3464;42.728;23.296;2022-11-15T01:58:13;128.60;;;63.40;;
6850;SDS011;3464;42.728;23.296;2022-11-15T02:00:39;113.97;;;59.67;;
6850;SDS011;3464;42.728;23.296;2022-11-15T02:03:06;124.20;;;61.87;;
6850;SDS011;3464;42.728;23.296;2022-11-15T02:05:32;123.17;;;64.53;;
6850;SDS011;3464;42.728;23.296;2022-11-15T02:07:59;127.83;;;64.30;;
6850;SDS011;3464;42.728;23.296;2022-11-15T02:10:27;129.67;;;63.90;;
6850;SDS011;3464;42.728;23.296;2022-11-15T02:12:54;122.30;;;62.63;;
6850;SDS011;3464;42.728;23.296;2022-11-15T02:15:20;130.27;;;66.77;;
6850;SDS011;3464;42.728;23.296;2022-11-15T02:20:27;124.03;;;61.60;;
6850;SDS011;3464;42.728;23.296;2022-11-15T02:23:04;122.80;;;62.40;;
6850;SDS011;3464;42.728;23.296;2022-11-15T02:25:37;122.97;;;62.37;;
6850;SDS011;3464;42.728;23.296;2022-11-15T02:30:52;120.87;;;61.13;;
6850;SDS011;3464;42.728;23.296;2022-11-15T02:33:26;113.43;;;60.90;;
6850;SDS011;3464;42.728;23.296;2022-11-15T02:36:05;113.60;;;59.20;;
6850;SDS011;3464;42.728;23.296;2022-11-15T02:38:38;122.63;;;62.00;;
6850;SDS011;3464;42.728;23.296;2022-11-15T02:41:09;110.07;;;58.23;;
6850;SDS011;3464;42.728;23.296;2022-11-15T02:43:39;110.87;;;58.30;;
6850;SDS011;3464;42.728;23.296;2022-11-15T02:46:14;122.27;;;62.30;;
6850;SDS011;3464;42.728;23.296;2022-11-15T02:48:42;118.80;;;62.73;;
6850;SDS011;3464;42.728;23.296;2022-11-15T02:51:09;117.73;;;61.40;;
6850;SDS011;3464;42.728;23.296;2022-11-15T02:53:35;123.13;;;63.33;;
6850;SDS011;3464;42.728;23.296;2022-11-15T02:56:02;114.57;;;58.90;;
6850;SDS011;3464;42.728;23.296;2022-11-15T02:58:37;104.67;;;55.90;;
6850;SDS011;3464;42.728;23.296;2022-11-15T03:01:19;102.43;;;51.80;;
6850;SDS011;3464;42.728;23.296;2022-11-15T03:03:55;96.40;;;50.40;;
6850;SDS011;3464;42.728;23.296;2022-11-15T03:06:32;94.93;;;51.40;;
6850;SDS011;3464;42.728;23.296;2022-11-15T03:09:04;103.40;;;52.30;;
6850;SDS011;3464;42.728;23.296;2022-11-15T03:11:33;100.73;;;50.87;;
6850;SDS011;3464;42.728;23.296;2022-11-15T03:14:01;102.93;;;52.47;;
6850;SDS011;3464;42.728;23.296;2022-11-15T03:16:47;105.07;;;52.23;;
6850;SDS011;3464;42.728;23.296;2022-11-15T03:19:19;91.77;;;49.10;;
6850;SDS011;3464;42.728;23.296;2022-11-15T03:21:55;84.50;;;46.13;;
6850;SDS011;3464;42.728;23.296;2022-11-15T03:24:21;92.77;;;48.77;;
6850;SDS011;3464;42.728;23.296;2022-11-15T03:26:48;100.70;;;50.07;;
6850;SDS011;3464;42.728;23.296;2022-11-15T03:29:17;96.67;;;49.00;;
6850;SDS011;3464;42.728;23.296;2022-11-15T03:31:44;100.80;;;50.80;;
6850;SDS011;3464;42.728;23.296;2022-11-15T03:34:15;96.67;;;50.23;;
6850;SDS011;3464;42.728;23.296;2022-11-15T03:36:45;109.47;;;56.73;;
6850;SDS011;3464;42.728;23.296;2022-11-15T03:39:11;104.33;;;56.30;;
6850;SDS011;3464;42.728;23.296;2022-11-15T03:41:40;101.30;;;51.83;;
6850;SDS011;3464;42.728;23.296;2022-11-15T03:44:12;105.50;;;54.17;;
6850;SDS011;3464;42.728;23.296;2022-11-15T03:46:58;112.27;;;55.20;;
6850;SDS011;3464;42.728;23.296;2022-11-15T03:49:29;103.17;;;54.30;;
6850;SDS011;3464;42.728;23.296;2022-11-15T03:51:56;104.60;;;54.00;;
6850;SDS011;3464;42.728;23.296;2022-11-15T03:54:22;105.43;;;51.13;;
6850;SDS011;3464;42.728;23.296;2022-11-15T03:56:49;108.97;;;50.20;;
6850;SDS011;3464;42.728;23.296;2022-11-15T03:59:16;115.60;;;53.50;;
6850;SDS011;3464;42.728;23.296;2022-11-15T04:01:43;105.37;;;50.30;;
6850;SDS011;3464;42.728;23.296;2022-11-15T04:04:09;108.30;;;51.30;;
6850;SDS011;3464;42.728;23.296;2022-11-15T04:06:36;116.23;;;51.93;;
6850;SDS011;3464;42.728;23.296;2022-11-15T04:09:03;109.87;;;51.10;;
6850;SDS011;3464;42.728;23.296;2022-11-15T04:11:29;106.20;;;49.77;;
6850;SDS011;3464;42.728;23.296;2022-11-15T04:13:56;103.83;;;49.50;;
6850;SDS011;3464;42.728;23.296;2022-11-15T04:16:23;96.13;;;47.17;;
6850;SDS011;3464;42.728;23.296;2022-11-15T04:18:49;99.20;;;45.60;;
6850;SDS011;3464;42.728;23.296;2022-11-15T04:21:16;95.10;;;45.67;;
6850;SDS011;3464;42.728;23.296;2022-11-15T04:23:48;97.83;;;45.23;;
6850;SDS011;3464;42.728;23.296;2022-11-15T04:26:29;101.87;;;43.13;;
6850;SDS011;3464;42.728;23.296;2022-11-15T04:28:56;104.20;;;46.20;;
6850;SDS011;3464;42.728;23.296;2022-11-15T04:31:28;113.73;;;45.07;;
6850;SDS011;3464;42.728;23.296;2022-11-15T04:33:54;113.23;;;48.20;;
6850;SDS011;3464;42.728;23.296;2022-11-15T04:36:21;101.77;;;46.93;;
6850;SDS011;3464;42.728;23.296;2022-11-15T04:38:53;114.00;;;47.43;;
6850;SDS011;3464;42.728;23.296;2022-11-15T04:41:19;119.70;;;50.30;;
6850;SDS011;3464;42.728;23.296;2022-11-15T04:43:47;118.77;;;48.83;;
6850;SDS011;3464;42.728;23.296;2022-11-15T04:46:20;110.93;;;50.50;;
6850;SDS011;3464;42.728;23.296;2022-11-15T04:48:51;118.37;;;49.20;;
6850;SDS011;3464;42.728;23.296;2022-11-15T04:51:25;125.30;;;49.87;;
6850;SDS011;3464;42.728;23.296;2022-11-15T04:53:52;112.57;;;44.70;;
6850;SDS011;3464;42.728;23.296;2022-11-15T04:56:18;109.43;;;45.40;;
6850;SDS011;3464;42.728;23.296;2022-11-15T04:58:48;99.93;;;43.50;;
6850;SDS011;3464;42.728;23.296;2022-11-15T05:01:13;108.87;;;46.10;;
6850;SDS011;3464;42.728;23.296;2022-11-15T05:03:40;105.03;;;43.90;;
6850;SDS011;3464;42.728;23.296;2022-11-15T05:06:12;105.93;;;46.27;;
6850;SDS011;3464;42.728;23.296;2022-11-15T05:08:40;102.13;;;45.80;;
6850;SDS011;3464;42.728;23.296;2022-11-15T05:11:06;108.37;;;48.40;;
6850;SDS011;3464;42.728;23.296;2022-11-15T05:13:33;103.73;;;47.90;;
6850;SDS011;3464;42.728;23.296;2022-11-15T05:15:59;103.10;;;48.67;;
6850;SDS011;3464;42.728;23.296;2022-11-15T05:18:26;111.53;;;49.17;;
6850;SDS011;3464;42.728;23.296;2022-11-15T05:20:53;110.97;;;49.93;;
6850;SDS011;3464;42.728;23.296;2022-11-15T05:23:19;104.57;;;49.07;;
6850;SDS011;3464;42.728;23.296;2022-11-15T05:25:46;111.13;;;48.30;;
6850;SDS011;3464;42.728;23.296;2022-11-15T05:28:13;114.13;;;51.57;;
6850;SDS011;3464;42.728;23.296;2022-11-15T05:30:40;99.87;;;46.67;;
6850;SDS011;3464;42.728;23.296;2022-11-15T05:33:07;104.40;;;49.00;;
6850;SDS011;3464;42.728;23.296;2022-11-15T05:35:34;95.63;;;45.13;;
6850;SDS011;3464;42.728;23.296;2022-11-15T05:38:01;101.03;;;45.17;;
6850;SDS011;3464;42.728;23.296;2022-11-15T05:40:27;99.40;;;44.83;;
6850;SDS011;3464;42.728;23.296;2022-11-15T05:42:54;108.83;;;47.70;;
6850;SDS011;3464;42.728;23.296;2022-11-15T05:45:20;95.53;;;43.40;;
6850;SDS011;3464;42.728;23.296;2022-11-15T05:47:47;105.83;;;44.27;;
6850;SDS011;3464;42.728;23.296;2022-11-15T05:50:14;103.20;;;44.97;;
6850;SDS011;3464;42.728;23.296;2022-11-15T05:52:40;103.60;;;43.93;;
6850;SDS011;3464;42.728;23.296;2022-11-15T05:55:07;108.13;;;44.20;;
6850;SDS011;3464;42.728;23.296;2022-11-15T05:57:34;127.33;;;47.00;;
6850;SDS011;3464;42.728;23.296;2022-11-15T06:00:00;108.80;;;46.30;;
6850;SDS011;3464;42.728;23.296;2022-11-15T06:02:27;103.93;;;44.23;;
6850;SDS011;3464;42.728;23.296;2022-11-15T06:04:54;109.67;;;43.90;;
6850;SDS011;3464;42.728;23.296;2022-11-15T06:07:20;123.47;;;46.47;;
6850;SDS011;3464;42.728;23.296;2022-11-15T06:09:47;96.47;;;42.90;;
6850;SDS011;3464;42.728;23.296;2022-11-15T06:12:13;108.87;;;45.43;;
6850;SDS011;3464;42.728;23.296;2022-11-15T06:14:40;110.87;;;44.87;;
6850;SDS011;3464;42.728;23.296;2022-11-15T06:17:09;109.70;;;44.20;;
6850;SDS011;3464;42.728;23.296;2022-11-15T06:19:36;117.43;;;45.37;;
6850;SDS011;3464;42.728;23.296;2022-11-15T06:22:02;120.63;;;47.50;;
6850;SDS011;3464;42.728;23.296;2022-11-15T06:24:29;131.53;;;45.97;;
6850;SDS011;3464;42.728;23.296;2022-11-15T06:26:55;121.17;;;45.53;;
6850;SDS011;3464;42.728;23.296;2022-11-15T06:29:22;124.50;;;45.27;;
6850;SDS011;3464;42.728;23.296;2022-11-15T06:31:49;115.83;;;47.83;;
6850;SDS011;3464;42.728;23.296;2022-11-15T06:34:15;121.10;;;45.83;;
6850;SDS011;3464;42.728;23.296;2022-11-15T06:36:42;119.33;;;49.30;;
6850;SDS011;3464;42.728;23.296;2022-11-15T06:39:08;125.17;;;47.77;;
6850;SDS011;3464;42.728;23.296;2022-11-15T06:41:36;126.77;;;47.80;;
6850;SDS011;3464;42.728;23.296;2022-11-15T06:44:02;135.93;;;46.97;;
6850;SDS011;3464;42.728;23.296;2022-11-15T06:46:29;140.23;;;49.57;;
6850;SDS011;3464;42.728;23.296;2022-11-15T06:48:56;147.00;;;54.40;;
6850;SDS011;3464;42.728;23.296;2022-11-15T06:51:23;142.57;;;53.17;;
6850;SDS011;3464;42.728;23.296;2022-11-15T06:53:49;142.73;;;54.03;;
6850;SDS011;3464;42.728;23.296;2022-11-15T06:56:16;149.43;;;53.77;;
6850;SDS011;3464;42.728;23.296;2022-11-15T06:58:43;201.03;;;61.37;;
6850;SDS011;3464;42.728;23.296;2022-11-15T07:01:10;161.63;;;59.70;;
6850;SDS011;3464;42.728;23.296;2022-11-15T07:03:36;181.57;;;61.67;;
6850;SDS011;3464;42.728;23.296;2022-11-15T07:06:02;162.67;;;57.43;;
6850;SDS011;3464;42.728;23.296;2022-11-15T07:08:29;142.50;;;52.27;;
6850;SDS011;3464;42.728;23.296;2022-11-15T07:10:58;152.27;;;52.53;;
6850;SDS011;3464;42.728;23.296;2022-11-15T07:13:24;141.70;;;51.20;;
6850;SDS011;3464;42.728;23.296;2022-11-15T07:15:51;159.00;;;54.27;;
6850;SDS011;3464;42.728;23.296;2022-11-15T07:18:20;147.10;;;53.93;;
6850;SDS011;3464;42.728;23.296;2022-11-15T07:20:47;128.90;;;49.43;;
6850;SDS011;3464;42.728;23.296;2022-11-15T07:23:13;119.07;;;46.93;;
6850;SDS011;3464;42.728;23.296;2022-11-15T07:25:40;120.37;;;47.00;;
6850;SDS011;3464;42.728;23.296;2022-11-15T07:28:08;109.73;;;44.43;;
6850;SDS011;3464;42.728;23.296;2022-11-15T07:30:35;108.57;;;44.20;;
6850;SDS011;3464;42.728;23.296;2022-11-15T07:33:02;127.13;;;46.93;;
6850;SDS011;3464;42.728;23.296;2022-11-15T07:35:30;111.53;;;47.10;;
6850;SDS011;3464;42.728;23.296;2022-11-15T07:37:57;118.27;;;48.50;;
6850;SDS011;3464;42.728;23.296;2022-11-15T07:40:26;112.13;;;47.90;;
6850;SDS011;3464;42.728;23.296;2022-11-15T07:42:52;115.73;;;47.47;;
6850;SDS011;3464;42.728;23.296;2022-11-15T07:45:19;123.07;;;52.13;;
6850;SDS011;3464;42.728;23.296;2022-11-15T07:47:46;131.03;;;53.73;;
6850;SDS011;3464;42.728;23.296;2022-11-15T07:50:13;123.83;;;53.20;;
6850;SDS011;3464;42.728;23.296;2022-11-15T07:52:39;122.10;;;52.60;;
6850;SDS011;3464;42.728;23.296;2022-11-15T07:55:06;126.13;;;54.67;;
6850;SDS011;3464;42.728;23.296;2022-11-15T07:57:33;121.17;;;53.60;;
6850;SDS011;3464;42.728;23.296;2022-11-15T07:59:59;128.13;;;52.57;;
6850;SDS011;3464;42.728;23.296;2022-11-15T08:02:26;133.77;;;52.77;;
6850;SDS011;3464;42.728;23.296;2022-11-15T08:04:52;128.73;;;54.57;;
6850;SDS011;3464;42.728;23.296;2022-11-15T08:07:19;159.47;;;61.40;;
6850;SDS011;3464;42.728;23.296;2022-11-15T08:09:46;143.37;;;55.67;;
6850;SDS011;3464;42.728;23.296;2022-11-15T08:12:13;133.40;;;55.27;;
6850;SDS011;3464;42.728;23.296;2022-11-15T08:14:40;155.03;;;60.30;;
6850;SDS011;3464;42.728;23.296;2022-11-15T08:17:07;140.10;;;57.10;;
6850;SDS011;3464;42.728;23.296;2022-11-15T08:19:35;130.10;;;55.63;;
6850;SDS011;3464;42.728;23.296;2022-11-15T08:22:02;136.60;;;54.93;;
6850;SDS011;3464;42.728;23.296;2022-11-15T08:24:29;135.37;;;55.73;;
6850;SDS011;3464;42.728;23.296;2022-11-15T08:26:55;138.53;;;55.80;;
6850;SDS011;3464;42.728;23.296;2022-11-15T08:29:22;139.87;;;56.13;;
6850;SDS011;3464;42.728;23.296;2022-11-15T08:31:48;125.17;;;51.10;;
6850;SDS011;3464;42.728;23.296;2022-11-15T08:34:15;140.90;;;53.40;;
6850;SDS011;3464;42.728;23.296;2022-11-15T08:36:41;143.53;;;51.30;;
6850;SDS011;3464;42.728;23.296;2022-11-15T08:39:10;130.63;;;52.50;;
6850;SDS011;3464;42.728;23.296;2022-11-15T08:41:41;131.37;;;54.17;;
6850;SDS011;3464;42.728;23.296;2022-11-15T08:44:08;140.67;;;54.50;;
6850;SDS011;3464;42.728;23.296;2022-11-15T08:46:34;118.27;;;54.73;;
6850;SDS011;3464;42.728;23.296;2022-11-15T08:49:01;144.47;;;61.27;;
6850;SDS011;3464;42.728;23.296;2022-11-15T08:51:27;133.53;;;54.20;;
6850;SDS011;3464;42.728;23.296;2022-11-15T08:53:54;137.07;;;58.13;;
6850;SDS011;3464;42.728;23.296;2022-11-15T08:56:20;142.03;;;57.17;;
6850;SDS011;3464;42.728;23.296;2022-11-15T08:58:48;126.53;;;54.00;;
6850;SDS011;3464;42.728;23.296;2022-11-15T09:01:16;134.63;;;55.37;;
6850;SDS011;3464;42.728;23.296;2022-11-15T09:03:42;124.50;;;55.23;;
6850;SDS011;3464;42.728;23.296;2022-11-15T09:06:08;128.07;;;54.20;;
6850;SDS011;3464;42.728;23.296;2022-11-15T09:08:35;126.57;;;54.77;;
6850;SDS011;3464;42.728;23.296;2022-11-15T09:11:03;128.60;;;57.10;;
6850;SDS011;3464;42.728;23.296;2022-11-15T09:13:30;131.33;;;57.87;;
6850;SDS011;3464;42.728;23.296;2022-11-15T09:15:57;133.40;;;56.50;;
6850;SDS011;3464;42.728;23.296;2022-11-15T09:18:23;135.23;;;58.00;;
6850;SDS011;3464;42.728;23.296;2022-11-15T09:20:50;138.70;;;57.60;;
6850;SDS011;3464;42.728;23.296;2022-11-15T09:23:16;131.97;;;59.00;;
6850;SDS011;3464;42.728;23.296;2022-11-15T09:25:43;128.47;;;58.80;;
6850;SDS011;3464;42.728;23.296;2022-11-15T09:28:09;135.93;;;59.40;;
6850;SDS011;3464;42.728;23.296;2022-11-15T09:30:36;137.30;;;61.33;;
6850;SDS011;3464;42.728;23.296;2022-11-15T09:33:08;141.43;;;61.00;;
6850;SDS011;3464;42.728;23.296;2022-11-15T09:35:35;141.80;;;63.93;;
6850;SDS011;3464;42.728;23.296;2022-11-15T09:38:03;139.83;;;59.40;;
6850;SDS011;3464;42.728;23.296;2022-11-15T09:40:32;138.87;;;59.47;;
6850;SDS011;3464;42.728;23.296;2022-11-15T09:43:02;135.73;;;56.20;;
6850;SDS011;3464;42.728;23.296;2022-11-15T09:45:30;134.37;;;59.10;;
6850;SDS011;3464;42.728;23.296;2022-11-15T09:50:44;150.50;;;57.83;;
6850;SDS011;3464;42.728;23.296;2022-11-15T09:53:13;136.60;;;56.47;;
6850;SDS011;3464;42.728;23.296;2022-11-15T09:55:44;131.73;;;57.00;;
6850;SDS011;3464;42.728;23.296;2022-11-15T09:58:18;130.10;;;52.70;;
6850;SDS011;3464;42.728;23.296;2022-11-15T10:01:04;121.50;;;54.83;;
6850;SDS011;3464;42.728;23.296;2022-11-15T10:03:34;126.47;;;54.87;;
6850;SDS011;3464;42.728;23.296;2022-11-15T10:06:02;109.43;;;49.23;;
6850;SDS011;3464;42.728;23.296;2022-11-15T10:08:31;105.77;;;49.77;;
6850;SDS011;3464;42.728;23.296;2022-11-15T10:10:58;104.77;;;49.10;;
6850;SDS011;3464;42.728;23.296;2022-11-15T10:13:29;100.80;;;47.33;;
6850;SDS011;3464;42.728;23.296;2022-11-15T10:15:59;103.60;;;48.80;;
6850;SDS011;3464;42.728;23.296;2022-11-15T10:18:25;103.20;;;48.90;;
6850;SDS011;3464;42.728;23.296;2022-11-15T10:20:58;97.57;;;48.03;;
6850;SDS011;3464;42.728;23.296;2022-11-15T10:23:23;103.43;;;47.27;;
6850;SDS011;3464;42.728;23.296;2022-11-15T10:25:51;101.33;;;48.33;;
6850;SDS011;3464;42.728;23.296;2022-11-15T10:28:22;98.90;;;48.53;;
6850;SDS011;3464;42.728;23.296;2022-11-15T10:30:49;110.13;;;49.90;;
6850;SDS011;3464;42.728;23.296;2022-11-15T10:33:21;102.60;;;47.10;;
6850;SDS011;3464;42.728;23.296;2022-11-15T10:35:58;97.33;;;49.40;;
6850;SDS011;3464;42.728;23.296;2022-11-15T10:38:16;99.07;;;48.43;;
6850;SDS011;3464;42.728;23.296;2022-11-15T10:40:42;93.87;;;46.77;;
6850;SDS011;3464;42.728;23.296;2022-11-15T10:43:14;104.43;;;48.23;;
6850;SDS011;3464;42.728;23.296;2022-11-15T10:45:40;100.27;;;46.67;;
6850;SDS011;3464;42.728;23.296;2022-11-15T10:48:19;99.67;;;47.47;;
6850;SDS011;3464;42.728;23.296;2022-11-15T10:50:50;91.93;;;46.13;;
6850;SDS011;3464;42.728;23.296;2022-11-15T10:53:22;99.07;;;45.93;;
6850;SDS011;3464;42.728;23.296;2022-11-15T10:55:51;92.37;;;45.77;;
6850;SDS011;3464;42.728;23.296;2022-11-15T10:58:35;110.60;;;50.37;;
6850;SDS011;3464;42.728;23.296;2022-11-15T11:01:10;126.23;;;53.40;;
6850;SDS011;3464;42.728;23.296;2022-11-15T11:03:37;121.63;;;55.80;;
6850;SDS011;3464;42.728;23.296;2022-11-15T11:06:08;120.43;;;55.37;;
6850;SDS011;3464;42.728;23.296;2022-11-15T11:08:33;123.93;;;58.47;;
6850;SDS011;3464;42.728;23.296;2022-11-15T11:11:00;135.90;;;59.70;;
6850;SDS011;3464;42.728;23.296;2022-11-15T11:13:28;118.07;;;56.60;;
6850;SDS011;3464;42.728;23.296;2022-11-15T11:18:48;124.53;;;58.10;;
6850;SDS011;3464;42.728;23.296;2022-11-15T11:21:25;132.00;;;57.63;;
6850;SDS011;3464;42.728;23.296;2022-11-15T11:23:54;123.67;;;55.53;;
6850;SDS011;3464;42.728;23.296;2022-11-15T11:26:29;120.10;;;55.40;;
6850;SDS011;3464;42.728;23.296;2022-11-15T11:29:17;110.10;;;53.30;;
6850;SDS011;3464;42.728;23.296;2022-11-15T11:31:51;118.07;;;56.13;;
6850;SDS011;3464;42.728;23.296;2022-11-15T11:34:27;113.30;;;54.73;;
6850;SDS011;3464;42.728;23.296;2022-11-15T11:40:06;116.70;;;58.70;;
6850;SDS011;3464;42.728;23.296;2022-11-15T11:42:19;105.30;;;54.57;;
6850;SDS011;3464;42.728;23.296;2022-11-15T11:45:10;115.70;;;55.57;;
6850;SDS011;3464;42.728;23.296;2022-11-15T11:47:40;109.50;;;55.57;;
6850;SDS011;3464;42.728;23.296;2022-11-15T11:50:13;116.23;;;56.63;;
6850;SDS011;3464;42.728;23.296;2022-11-15T11:52:57;118.33;;;56.53;;
6850;SDS011;3464;42.728;23.296;2022-11-15T11:55:27;107.67;;;56.20;;
6850;SDS011;3464;42.728;23.296;2022-11-15T11:58:01;113.77;;;57.30;;
6850;SDS011;3464;42.728;23.296;2022-11-15T12:00:28;112.73;;;56.37;;
6850;SDS011;3464;42.728;23.296;2022-11-15T12:03:02;117.00;;;58.50;;
6850;SDS011;3464;42.728;23.296;2022-11-15T12:05:44;115.63;;;57.73;;
6850;SDS011;3464;42.728;23.296;2022-11-15T12:08:36;115.80;;;58.17;;
6850;SDS011;3464;42.728;23.296;2022-11-15T12:11:13;115.13;;;58.60;;
6850;SDS011;3464;42.728;23.296;2022-11-15T12:13:40;110.83;;;55.00;;
6850;SDS011;3464;42.728;23.296;2022-11-15T12:16:12;107.60;;;54.60;;
6850;SDS011;3464;42.728;23.296;2022-11-15T12:18:53;115.67;;;56.10;;
6850;SDS011;3464;42.728;23.296;2022-11-15T12:24:02;119.97;;;59.43;;
6850;SDS011;3464;42.728;23.296;2022-11-15T12:26:30;131.20;;;62.30;;
6850;SDS011;3464;42.728;23.296;2022-11-15T12:28:56;131.07;;;61.93;;
6850;SDS011;3464;42.728;23.296;2022-11-15T12:31:35;124.23;;;59.63;;
6850;SDS011;3464;42.728;23.296;2022-11-15T12:34:13;123.57;;;61.57;;
6850;SDS011;3464;42.728;23.296;2022-11-15T12:36:38;124.20;;;58.27;;
6850;SDS011;3464;42.728;23.296;2022-11-15T12:39:06;110.07;;;55.13;;
6850;SDS011;3464;42.728;23.296;2022-11-15T12:41:37;124.57;;;58.20;;
6850;SDS011;3464;42.728;23.296;2022-11-15T12:44:02;118.33;;;58.67;;
6850;SDS011;3464;42.728;23.296;2022-11-15T12:49:42;115.27;;;58.33;;
6850;SDS011;3464;42.728;23.296;2022-11-15T12:52:08;128.47;;;58.57;;
6850;SDS011;3464;42.728;23.296;2022-11-15T12:54:52;119.47;;;58.53;;
6850;SDS011;3464;42.728;23.296;2022-11-15T12:57:22;125.27;;;59.40;;
6850;SDS011;3464;42.728;23.296;2022-11-15T12:59:49;120.20;;;59.20;;
6850;SDS011;3464;42.728;23.296;2022-11-15T13:02:22;122.23;;;58.20;;
6850;SDS011;3464;42.728;23.296;2022-11-15T13:04:49;117.30;;;60.00;;
6850;SDS011;3464;42.728;23.296;2022-11-15T13:09:54;116.67;;;58.57;;
6850;SDS011;3464;42.728;23.296;2022-11-15T13:12:54;115.67;;;56.67;;
6850;SDS011;3464;42.728;23.296;2022-11-15T13:18:39;103.47;;;51.17;;
6850;SDS011;3464;42.728;23.296;2022-11-15T13:20:51;102.63;;;52.43;;
6850;SDS011;3464;42.728;23.296;2022-11-15T13:23:19;103.63;;;53.10;;
6850;SDS011;3464;42.728;23.296;2022-11-15T13:25:48;99.73;;;51.40;;
6850;SDS011;3464;42.728;23.296;2022-11-15T13:28:22;104.57;;;52.17;;
6850;SDS011;3464;42.728;23.296;2022-11-15T13:30:56;105.83;;;52.57;;
6850;SDS011;3464;42.728;23.296;2022-11-15T13:36:24;103.17;;;53.90;;
6850;SDS011;3464;42.728;23.296;2022-11-15T13:39:31;104.80;;;52.60;;
6850;SDS011;3464;42.728;23.296;2022-11-15T13:41:58;96.93;;;51.50;;
6850;SDS011;3464;42.728;23.296;2022-11-15T13:44:26;97.33;;;49.80;;
6850;SDS011;3464;42.728;23.296;2022-11-15T13:49:47;93.83;;;49.70;;
6850;SDS011;3464;42.728;23.296;2022-11-15T13:55:22;99.07;;;49.27;;
6850;SDS011;3464;42.728;23.296;2022-11-15T13:57:54;99.20;;;50.00;;
6850;SDS011;3464;42.728;23.296;2022-11-15T14:03:25;95.67;;;47.40;;
6850;SDS011;3464;42.728;23.296;2022-11-15T14:06:02;102.60;;;48.07;;
6850;SDS011;3464;42.728;23.296;2022-11-15T14:11:32;101.73;;;49.57;;
6850;SDS011;3464;42.728;23.296;2022-11-15T14:14:08;101.10;;;49.87;;
6850;SDS011;3464;42.728;23.296;2022-11-15T14:16:52;99.77;;;48.67;;
6850;SDS011;3464;42.728;23.296;2022-11-15T14:30:36;94.37;;;43.70;;
6850;SDS011;3464;42.728;23.296;2022-11-15T14:33:24;89.17;;;43.93;;
6850;SDS011;3464;42.728;23.296;2022-11-15T14:35:57;99.10;;;47.07;;
6850;SDS011;3464;42.728;23.296;2022-11-15T14:38:24;92.47;;;48.47;;
6850;SDS011;3464;42.728;23.296;2022-11-15T14:40:50;88.20;;;43.53;;
6850;SDS011;3464;42.728;23.296;2022-11-15T14:43:17;100.60;;;47.70;;
6850;SDS011;3464;42.728;23.296;2022-11-15T14:45:43;98.93;;;49.33;;
6850;SDS011;3464;42.728;23.296;2022-11-15T14:48:10;102.07;;;49.80;;
6850;SDS011;3464;42.728;23.296;2022-11-15T14:50:36;108.13;;;52.00;;
6850;SDS011;3464;42.728;23.296;2022-11-15T14:53:03;105.03;;;51.20;;
6850;SDS011;3464;42.728;23.296;2022-11-15T14:55:30;101.33;;;49.77;;
6850;SDS011;3464;42.728;23.296;2022-11-15T14:57:57;107.73;;;53.80;;
6850;SDS011;3464;42.728;23.296;2022-11-15T15:00:23;110.00;;;55.33;;
6850;SDS011;3464;42.728;23.296;2022-11-15T15:02:52;109.30;;;53.07;;
6850;SDS011;3464;42.728;23.296;2022-11-15T15:05:24;124.70;;;50.07;;
6850;SDS011;3464;42.728;23.296;2022-11-15T15:07:52;109.30;;;57.07;;
6850;SDS011;3464;42.728;23.296;2022-11-15T15:10:19;113.33;;;58.90;;
6850;SDS011;3464;42.728;23.296;2022-11-15T15:12:45;116.33;;;60.10;;
6850;SDS011;3464;42.728;23.296;2022-11-15T15:15:13;114.67;;;59.13;;
6850;SDS011;3464;42.728;23.296;2022-11-15T15:17:39;114.77;;;57.07;;
6850;SDS011;3464;42.728;23.296;2022-11-15T15:20:05;122.27;;;62.60;;
6850;SDS011;3464;42.728;23.296;2022-11-15T15:22:32;115.77;;;60.70;;
6850;SDS011;3464;42.728;23.296;2022-11-15T15:25:01;117.00;;;61.20;;